sensor_id;sensor_type;location;lat;lon;timestamp;pressure;altitude;pressure_sealevel;temperature;humidity
61740;BME280;47645;45.288;12.038;2023-06-22T00:01:16;1017.652643769298;;;26.4880859375;62.2381772771774
61740;BME280;47645;45.288;12.038;2023-06-22T00:11:17;1017.7396818576018;;;26.350390625;62.440036839419065
61740;BME280;47645;45.288;12.038;2023-06-22T00:21:21;1017.7505898162043;;;26.1005859375;65.12467137316047
61740;BME280;47645;45.288;12.038;2023-06-22T00:31:21;1017.5693467369324;;;26.126171875;62.65945736608766
61740;BME280;47645;45.288;12.038;2023-06-22T00:41:22;1017.4733204153151;;;25.9935546875;63.61822642518373
61740;BME280;47645;45.288;12.038;2023-06-22T00:51:24;1017.3237864999792;;;25.825390625;64.0945493784873
61740;BME280;47645;45.288;12.038;2023-06-22T01:01:26;1017.3721211278349;;;25.815234375;63.48697372925107
61740;BME280;47645;45.288;12.038;2023-06-22T01:11:32;1017.224295772938;;;25.6673828125;64.42647634630153
61740;BME280;47645;45.288;12.038;2023-06-22T01:21:31;1017.1400147535776;;;25.6826171875;64.04600224042724
61740;BME280;47645;45.288;12.038;2023-06-22T01:31:32;1017.188115801647;;;25.223828125;72.62216090266796
61740;BME280;47645;45.288;12.038;2023-06-22T01:41:37;1017.1191952664444;;;25.4328125;72.37238591372834
61740;BME280;47645;45.288;12.038;2023-06-22T01:51:34;1016.9837815413928;;;25.2595703125;70.41626587723002
61740;BME280;47645;45.288;12.038;2023-06-22T02:01:38;1017.0889824207133;;;24.99453125;75.6141565506575
61740;BME280;47645;45.288;12.038;2023-06-22T02:11:39;1017.2337866558016;;;24.708984375;82.71048278919693
61740;BME280;47645;45.288;12.038;2023-06-22T02:21:39;1017.3935238398349;;;24.8416015625;90.72046235389016
61740;BME280;47645;45.288;12.038;2023-06-22T02:31:40;1017.4467264706458;;;24.6427734375;79.10375635519748
61740;BME280;47645;45.288;12.038;2023-06-22T02:41:42;1017.5502893881519;;;24.80078125;72.30998403801735
61740;BME280;47645;45.288;12.038;2023-06-22T02:51:46;1017.4397502395286;;;24.4591796875;83.34027633253504
61740;BME280;47645;45.288;12.038;2023-06-22T03:01:45;1017.533061154975;;;24.7140625;82.6432072129136
61740;BME280;47645;45.288;12.038;2023-06-22T03:16:47;1017.4185151713784;;;24.7599609375;70.21054238438056
61740;BME280;47645;45.288;12.038;2023-06-22T03:21:48;1017.289875102762;;;24.60703125;86.02563066099634
61740;BME280;47645;45.288;12.038;2023-06-22T03:31:49;1017.418853696138;;;24.68359375;90.93588633866837
61740;BME280;47645;45.288;12.038;2023-06-22T03:41:51;1017.5283783819187;;;24.5763671875;85.55939059735695
61740;BME280;47645;45.288;12.038;2023-06-22T03:56:53;1017.4512905657351;;;24.622265625;72.45925736335981
61740;BME280;47645;45.288;12.038;2023-06-22T04:01:55;1017.4956932277911;;;24.6681640625;89.98212784895772
61740;BME280;47645;45.288;12.038;2023-06-22T04:11:56;1017.4978655499118;;;24.7701171875;90.61485354728467
61740;BME280;47645;45.288;12.038;2023-06-22T04:21:57;1017.475285094052;;;24.8109375;92.05349849299029
61740;BME280;47645;45.288;12.038;2023-06-22T04:32:04;1017.4473720116871;;;24.999609375;81.04248839571682
61740;BME280;47645;45.288;12.038;2023-06-22T04:42:01;1017.5645278459356;;;25.22890625;78.97508497991234
61740;BME280;47645;45.288;12.038;2023-06-22T04:52:04;1017.4652259720891;;;25.544921875;79.8409984234347
61740;BME280;47645;45.288;12.038;2023-06-22T05:02:04;1017.3376378413847;;;26.263671875;80.41926576231181
61740;BME280;47645;45.288;12.038;2023-06-22T05:12:06;1017.3520511045477;;;26.855078125;79.53830715361153
61740;BME280;47645;45.288;12.038;2023-06-22T05:22:07;1017.4972246431156;;;27.6349609375;74.90066672293888
61740;BME280;47645;45.288;12.038;2023-06-22T05:32:08;1017.4367156051252;;;28.1142578125;73.29496041040422
61740;BME280;47645;45.288;12.038;2023-06-22T05:42:10;1017.4717659197958;;;28.60859375;71.58456651069322
61740;BME280;47645;45.288;12.038;2023-06-22T05:52:11;1017.406495209278;;;28.817578125;70.96793484454673
61740;BME280;47645;45.288;12.038;2023-06-22T06:02:13;1017.3888089888038;;;29.0369140625;70.66283424084868
61740;BME280;47645;45.288;12.038;2023-06-22T06:12:14;1017.4653831188584;;;29.5822265625;68.73418621894574
61740;BME280;47645;45.288;12.038;2023-06-22T06:22:16;1017.4301998938577;;;29.8984375;67.3457232228815
61740;BME280;47645;45.288;12.038;2023-06-22T06:32:18;1017.390232447687;;;30.107421875;66.81007985325472
61740;BME280;47645;45.288;12.038;2023-06-22T06:42:20;1017.3383834211683;;;30.408203125;67.0131212879732
61740;BME280;47645;45.288;12.038;2023-06-22T06:52:21;1017.313886599658;;;30.6935546875;65.51316791491173
61740;BME280;47645;45.288;12.038;2023-06-22T07:02:23;1017.1938856560447;;;31.121875;62.74429611739952
61740;BME280;47645;45.288;12.038;2023-06-22T07:12:24;1017.1834917094205;;;31.641796875;62.32924041553143
61740;BME280;47645;45.288;12.038;2023-06-22T07:22:26;1017.2231824935748;;;31.4888671875;60.53288787051855
61740;BME280;47645;45.288;12.038;2023-06-22T07:32:29;1017.2326928296058;;;31.427734375;61.962541974167216
61740;BME280;47645;45.288;12.038;2023-06-22T07:42:33;1017.1502225410296;;;32.4880859375;58.1275632203982
61740;BME280;47645;45.288;12.038;2023-06-22T07:52:31;1017.2684858632332;;;33.0744140625;56.25586000172179
61740;BME280;47645;45.288;12.038;2023-06-22T08:02:33;1017.301927855028;;;33.2220703125;55.36063650367686
61740;BME280;47645;45.288;12.038;2023-06-22T08:12:35;1017.1234590267726;;;33.8083984375;52.21946255796242
61740;BME280;47645;45.288;12.038;2023-06-22T08:22:37;1017.1499834851545;;;34.5017578125;51.01196853147839
61740;BME280;47645;45.288;12.038;2023-06-22T08:32:39;1017.0276978204843;;;34.0123046875;50.99689007676544
61740;BME280;47645;45.288;12.038;2023-06-22T08:42:41;1017.1525711257423;;;34.4150390625;49.35089867967811
61740;BME280;47645;45.288;12.038;2023-06-22T08:52:42;1017.1173628280495;;;35.3224609375;47.19124491048587
61740;BME280;47645;45.288;12.038;2023-06-22T09:02:44;1017.2036931689094;;;34.8484375;45.393144326972795
61740;BME280;47645;45.288;12.038;2023-06-22T09:12:46;1017.2214752045234;;;34.965625;45.54799292177854
61740;BME280;47645;45.288;12.038;2023-06-22T09:22:48;1017.2177707919681;;;34.756640625;44.865730537361436
61740;BME280;47645;45.288;12.038;2023-06-22T09:32:50;1017.2413697118698;;;35.4041015625;43.7127860464903
61740;BME280;47645;45.288;12.038;2023-06-22T09:42:52;1017.1525000451572;;;35.3224609375;44.87453184368612
61740;BME280;47645;45.288;12.038;2023-06-22T09:52:55;1017.1611494213387;;;35.261328125;43.03062943945398
61740;BME280;47645;45.288;12.038;2023-06-22T10:02:57;1017.1041897439054;;;35.7966796875;40.9110613531237
61740;BME280;47645;45.288;12.038;2023-06-22T10:13:07;1017.1863405219307;;;36.7091796875;39.287880350168706
61740;BME280;47645;45.288;12.038;2023-06-22T10:23:00;1017.1959605088389;;;36.668359375;40.193245357103606
61740;BME280;47645;45.288;12.038;2023-06-22T10:33:02;1017.1734370212147;;;36.6021484375;39.43164204550695
61740;BME280;47645;45.288;12.038;2023-06-22T10:43:05;1017.1238354820608;;;37.2037109375;38.27040069330417
61740;BME280;47645;45.288;12.038;2023-06-22T10:53:07;1017.0947868040897;;;37.616796875;33.601780004666395
61740;BME280;47645;45.288;12.038;2023-06-22T11:03:09;1017.0897802731113;;;37.917578125;36.692003248827774
61740;BME280;47645;45.288;12.038;2023-06-22T11:13:11;1017.0078608786779;;;38.5546875;33.12686291058959
61740;BME280;47645;45.288;12.038;2023-06-22T11:23:14;1016.8992823040821;;;38.4935546875;35.48691011922618
61740;BME280;47645;45.288;12.038;2023-06-22T11:33:16;1016.7601156488731;;;38.840234375;32.55114914594754
61740;BME280;47645;45.288;12.038;2023-06-22T11:43:18;1016.5497945603169;;;39.2685546875;34.66443121793031
61740;BME280;47645;45.288;12.038;2023-06-22T11:53:21;1016.3783213769119;;;40.303515625;34.109840530376815
61740;BME280;47645;45.288;12.038;2023-06-22T12:03:23;1016.3799535614625;;;40.023046875;29.896410882444346
61740;BME280;47645;45.288;12.038;2023-06-22T12:13:25;1016.2697322019136;;;40.8388671875;31.98599641276158
61740;BME280;47645;45.288;12.038;2023-06-22T12:23:28;1016.1726492329627;;;40.125;33.115975182621916
61740;BME280;47645;45.288;12.038;2023-06-22T12:33:31;1016.031951755566;;;39.829296875;32.26977854610132
61740;BME280;47645;45.288;12.038;2023-06-22T12:43:32;1015.783793116632;;;40.293359375;34.494696161839826
61740;BME280;47645;45.288;12.038;2023-06-22T12:53:35;1015.7021636519697;;;41.4046875;33.06275654559228
61740;BME280;47645;45.288;12.038;2023-06-22T13:03:37;1015.7515594712349;;;41.78203125;33.0298651097184
61740;BME280;47645;45.288;12.038;2023-06-22T13:13:40;1015.6438988219786;;;42.4244140625;31.220698611046988
61740;BME280;47645;45.288;12.038;2023-06-22T13:23:43;1015.6121812101462;;;42.455078125;30.772326906341423
61740;BME280;47645;45.288;12.038;2023-06-22T13:33:48;1015.4440340479374;;;41.9095703125;33.17180107939281
61740;BME280;47645;45.288;12.038;2023-06-22T13:43:48;1015.3861323015605;;;42.2357421875;32.44573499151528
61740;BME280;47645;45.288;12.038;2023-06-22T13:53:50;1015.2324106861769;;;42.45;33.714675218152415
61740;BME280;47645;45.288;12.038;2023-06-22T14:03:52;1015.2643238202859;;;42.3990234375;28.821437255852402
61740;BME280;47645;45.288;12.038;2023-06-22T14:13:55;1015.3017974178944;;;41.9298828125;33.53319024116671
61740;BME280;47645;45.288;12.038;2023-06-22T14:23:57;1015.2825706070637;;;42.0318359375;32.45668964961029
61740;BME280;47645;45.288;12.038;2023-06-22T14:34:00;1015.1152146806248;;;42.001171875;34.020177729384756
61740;BME280;47645;45.288;12.038;2023-06-22T14:44:02;1015.1533820616547;;;41.185546875;32.25463871463035
61740;BME280;47645;45.288;12.038;2023-06-22T14:54:05;1015.2674896628176;;;40.8796875;36.51655110461171
61740;BME280;47645;45.288;12.038;2023-06-22T15:04:07;1015.2138896177271;;;40.894921875;34.92788492954362
61740;BME280;47645;45.288;12.038;2023-06-22T15:14:09;1015.3215027436778;;;40.1353515625;35.99347808552671
61740;BME280;47645;45.288;12.038;2023-06-22T15:25:45;1015.094456157831;;;40.216796875;37.613273166858626
61740;BME280;47645;45.288;12.038;2023-06-22T15:30:44;1015.2043879239901;;;39.7427734375;37.313455241224716
61740;BME280;47645;45.288;12.038;2023-06-22T15:40:46;1015.1142672516963;;;39.2888671875;36.480577936121534
61740;BME280;47645;45.288;12.038;2023-06-22T15:53:56;1015.0782436504949;;;39.5744140625;34.64672489228343
61740;BME280;47645;45.288;12.038;2023-06-22T16:03:59;1014.8694567302213;;;39.5845703125;36.83579535828168
61740;BME280;47645;45.288;12.038;2023-06-22T16:14:01;1014.9598102524569;;;38.93203125;40.37035160171761
61740;BME280;47645;45.288;12.038;2023-06-22T16:24:04;1014.8563998598779;;;37.820703125;37.52963812403367
61740;BME280;47645;45.288;12.038;2023-06-22T16:34:05;1014.6770637445737;;;37.219140625;43.32337288609781
61740;BME280;47645;45.288;12.038;2023-06-22T16:44:08;1014.7028566080021;;;36.5767578125;43.590372185313974
61740;BME280;47645;45.288;12.038;2023-06-22T16:54:10;1014.6952274993673;;;36.3625;45.918804603541076
61740;BME280;47645;45.288;12.038;2023-06-22T17:04:14;1014.4715353702202;;;36.1025390625;43.98749437683406
61740;BME280;47645;45.288;12.038;2023-06-22T17:14:14;1014.3251010767043;;;35.34296875;38.75212548313346
61740;BME280;47645;45.288;12.038;2023-06-22T17:24:18;1014.2542760535358;;;35.1900390625;47.184104111343515
61740;BME280;47645;45.288;12.038;2023-06-22T17:34:20;1014.3599620351473;;;34.930078125;47.009763738204875
61740;BME280;47645;45.288;12.038;2023-06-22T17:44:23;1014.5168982937138;;;34.56796875;49.35319664857754
61740;BME280;47645;45.288;12.038;2023-06-22T17:54:23;1014.320395669479;;;34.1296875;46.46996240901194
61740;BME280;47645;45.288;12.038;2023-06-22T18:04:25;1014.072697181524;;;33.854296875;50.53397130640473
61740;BME280;47645;45.288;12.038;2023-06-22T18:14:29;1014.1211580462151;;;33.5228515625;51.700717037914146
61740;BME280;47645;45.288;12.038;2023-06-22T18:24:29;1014.4053824694851;;;33.140625;52.063895244357596
61740;BME280;47645;45.288;12.038;2023-06-22T18:34:31;1014.4813444959456;;;32.7939453125;52.485642381242634
61740;BME280;47645;45.288;12.038;2023-06-22T18:44:33;1014.6604676081713;;;32.4166015625;51.80699063034257
61740;BME280;47645;45.288;12.038;2023-06-22T18:54:38;1014.5010679996781;;;32.039453125;54.94501755867532
61740;BME280;47645;45.288;12.038;2023-06-22T19:04:40;1014.5972646883883;;;31.662109375;55.47370735987728
61740;BME280;47645;45.288;12.038;2023-06-22T19:14:39;1014.3209334337095;;;31.330859375;56.52949568998576
61740;BME280;47645;45.288;12.038;2023-06-22T19:24:49;1014.0524966149043;;;30.9943359375;56.28459450316905
61740;BME280;47645;45.288;12.038;2023-06-22T19:34:47;1014.1778585114973;;;30.6732421875;58.11606036634747
61740;BME280;47645;45.288;12.038;2023-06-22T19:44:44;1014.4429925495144;;;30.3623046875;59.09167437686588
61740;BME280;47645;45.288;12.038;2023-06-22T19:54:47;1014.261839459697;;;30.204296875;58.95701592359979
61740;BME280;47645;45.288;12.038;2023-06-22T20:04:48;1013.8964926142137;;;29.9849609375;59.47385086963398
61740;BME280;47645;45.288;12.038;2023-06-22T20:14:50;1013.8040807840786;;;29.419140625;61.59421527779829
61740;BME280;47645;45.288;12.038;2023-06-22T20:24:51;1013.8734040161412;;;29.4650390625;60.90957689972804
61740;BME280;47645;45.288;12.038;2023-06-22T20:34:54;1014.0549734451415;;;29.4548828125;60.68741300958286
61740;BME280;47645;45.288;12.038;2023-06-22T20:44:54;1013.7828009315388;;;28.894140625;62.576998293322546
61740;BME280;47645;45.288;12.038;2023-06-22T20:54:57;1014.1726624632132;;;29.00625;61.84344603275481
61740;BME280;47645;45.288;12.038;2023-06-22T21:04:58;1014.065523129867;;;28.8583984375;62.08142982694164
61740;BME280;47645;45.288;12.038;2023-06-22T21:15:00;1014.0169751709176;;;28.7564453125;62.320891728088895
61740;BME280;47645;45.288;12.038;2023-06-22T21:25:05;1013.9442995046624;;;28.6240234375;62.37843849191785
61740;BME280;47645;45.288;12.038;2023-06-22T21:35:04;1014.0753637701174;;;28.4505859375;63.271001193276284
61740;BME280;47645;45.288;12.038;2023-06-22T21:40:06;1013.9824872760457;;;28.369140625;63.11536406028913
61740;BME280;47645;45.288;12.038;2023-06-22T21:50:07;1013.9916275015172;;;27.7216796875;72.24361557513026
61740;BME280;47645;45.288;12.038;2023-06-22T22:00:12;1014.1785309081241;;;27.1353515625;76.0590123316728
61740;BME280;47645;45.288;12.038;2023-06-22T22:10:10;1014.2429310129611;;;26.941796875;71.63041711405158
61740;BME280;47645;45.288;12.038;2023-06-22T22:20:11;1014.0579018026505;;;27.4107421875;68.07711182073996
61740;BME280;47645;45.288;12.038;2023-06-22T22:30:13;1014.0202069807534;;;26.6306640625;81.55096151146276
61740;BME280;47645;45.288;12.038;2023-06-22T22:40:14;1013.937569688976;;;26.7326171875;81.4224932632955
61740;BME280;47645;45.288;12.038;2023-06-22T22:50:16;1013.5993047867163;;;26.365625;84.4354548840586
61740;BME280;47645;45.288;12.038;2023-06-22T23:00:18;1013.6077340936048;;;26.233203125;82.51453164388631
61740;BME280;47645;45.288;12.038;2023-06-22T23:10:19;1013.4256124245601;;;26.477734375;72.8497609463607
61740;BME280;47645;45.288;12.038;2023-06-22T23:20:20;1013.2164153709086;;;26.9978515625;69.13242304315744
61740;BME280;47645;45.288;12.038;2023-06-22T23:30:23;1013.258954720346;;;26.7021484375;71.42239492969993
61740;BME280;47645;45.288;12.038;2023-06-22T23:40:24;1012.9668460951077;;;26.8703125;67.79608078336133
61740;BME280;47645;45.288;12.038;2023-06-22T23:50:26;1012.6574514848039;;;26.447265625;70.61611943288358
